createdAt,value
2016-12-23T00:00:05.495Z,20.9
2016-12-23T00:02:07.741Z,21
2016-12-23T00:04:05.431Z,20.9
2016-12-23T00:06:07.220Z,21
2016-12-23T00:08:05.926Z,20.9
2016-12-23T00:10:04.783Z,21
2016-12-23T00:12:08.023Z,21
2016-12-23T00:14:04.722Z,21
2016-12-23T00:16:07.861Z,21
2016-12-23T00:18:04.737Z,21
2016-12-23T00:20:06.071Z,21
2016-12-23T00:22:08.046Z,21
2016-12-23T00:24:05.143Z,21
2016-12-23T00:26:04.845Z,21
2016-12-23T00:28:05.612Z,21
2016-12-23T00:30:08.266Z,21
2016-12-23T00:32:04.734Z,21
2016-12-23T00:34:05.798Z,21
2016-12-23T00:36:05.511Z,21
2016-12-23T00:38:05.262Z,20.9
2016-12-23T00:40:07.861Z,20.9
2016-12-23T00:42:05.592Z,20.9
2016-12-23T00:44:07.843Z,20.9
2016-12-23T00:46:05.731Z,20.9
2016-12-23T00:48:08.024Z,20.9
2016-12-23T00:50:09.793Z,20.9
2016-12-23T00:52:05.840Z,20.9
2016-12-23T00:54:05.560Z,20.9
2016-12-23T00:56:10.368Z,20.9
2016-12-23T00:58:05.080Z,20.9
2016-12-23T01:00:04.815Z,20.9
2016-12-23T01:02:08.172Z,20.9
2016-12-23T01:04:07.691Z,20.8
2016-12-23T01:06:05.415Z,20.8
2016-12-23T01:08:05.146Z,20.9
2016-12-23T01:10:05.312Z,20.9
2016-12-23T01:12:05.387Z,20.9
2016-12-23T01:14:10.152Z,20.9
2016-12-23T01:16:07.694Z,20.9
2016-12-23T01:18:05.612Z,20.8
2016-12-23T01:20:05.293Z,20.8
2016-12-23T01:22:04.978Z,20.9
2016-12-23T01:24:04.680Z,20.8
2016-12-23T01:26:07.885Z,20.8
2016-12-23T01:28:05.967Z,20.8
2016-12-23T01:30:07.181Z,20.8
2016-12-23T01:32:04.884Z,20.8
2016-12-23T01:34:05.784Z,20.8
2016-12-23T01:36:05.463Z,20.8
2016-12-23T01:38:05.192Z,20.8
2016-12-23T01:40:05.206Z,20.8
2016-12-23T01:42:04.984Z,20.8
2016-12-23T01:44:05.025Z,20.8
2016-12-23T01:46:05.381Z,20.8
2016-12-23T01:48:05.039Z,20.8
2016-12-23T01:50:04.683Z,20.8
2016-12-23T01:52:05.278Z,20.8
2016-12-23T01:54:04.943Z,20.8
2016-12-23T01:56:04.609Z,20.8
2016-12-23T01:58:05.470Z,20.8
2016-12-23T02:00:07.547Z,20.8
2016-12-23T02:02:07.722Z,20.7
2016-12-23T02:04:05.492Z,20.8
2016-12-23T02:06:05.168Z,20.7
2016-12-23T02:08:07.345Z,20.8
2016-12-23T02:10:05.341Z,20.8
2016-12-23T02:12:05.051Z,20.8
2016-12-23T02:14:04.711Z,20.8
2016-12-23T02:16:08.102Z,20.7
2016-12-23T02:18:07.569Z,20.7
2016-12-23T02:20:05.357Z,20.7
2016-12-23T02:22:04.670Z,20.7
2016-12-23T02:24:05.389Z,20.7
2016-12-23T02:26:04.611Z,20.7
2016-12-23T02:28:05.655Z,20.7
2016-12-23T02:30:05.399Z,20.7
2016-12-23T02:32:05.125Z,20.7
2016-12-23T02:34:04.820Z,20.7
2016-12-23T02:36:08.031Z,20.7
2016-12-23T02:38:04.752Z,20.7
2016-12-23T02:40:05.873Z,20.7
2016-12-23T02:42:05.575Z,20.7
2016-12-23T02:44:07.934Z,20.7
2016-12-23T02:46:05.023Z,20.7
2016-12-23T02:48:07.335Z,20.7
2016-12-23T02:50:10.764Z,20.7
2016-12-23T02:52:05.521Z,20.7
2016-12-23T02:54:07.973Z,20.7
2016-12-23T02:56:09.800Z,20.7
2016-12-23T02:58:10.590Z,20.7
2016-12-23T03:00:05.251Z,20.7
2016-12-23T03:02:04.972Z,20.7
2016-12-23T03:04:10.651Z,20.7
2016-12-23T03:06:05.336Z,20.7
2016-12-23T03:08:05.593Z,20.7
2016-12-23T03:10:05.260Z,20.6
2016-12-23T03:12:04.935Z,20.6
2016-12-23T03:14:04.700Z,20.6
2016-12-23T03:16:05.573Z,20.6
2016-12-23T03:18:05.504Z,20.6
2016-12-23T03:20:08.096Z,20.6
2016-12-23T03:22:04.904Z,20.6
2016-12-23T03:24:05.687Z,20.6
2016-12-23T03:26:05.427Z,20.6
2016-12-23T03:28:05.326Z,20.6
2016-12-23T03:30:05.000Z,20.6
2016-12-23T03:32:04.762Z,20.6
2016-12-23T03:34:08.336Z,20.6
2016-12-23T03:36:08.225Z,20.6
2016-12-23T03:38:04.932Z,20.6
2016-12-23T03:40:04.966Z,20.6
2016-12-23T03:42:04.805Z,20.6
2016-12-23T03:44:05.033Z,20.6
2016-12-23T03:46:07.486Z,20.6
2016-12-23T03:48:05.383Z,20.6
2016-12-23T03:50:05.061Z,20.6
2016-12-23T03:52:07.663Z,20.6
2016-12-23T03:54:05.357Z,20.6
2016-12-23T03:56:05.058Z,20.6
2016-12-23T03:58:04.900Z,20.6
2016-12-23T04:00:05.581Z,20.6
2016-12-23T04:02:05.300Z,20.6
2016-12-23T04:04:05.137Z,20.6
2016-12-23T04:06:04.884Z,20.6
2016-12-23T04:08:07.928Z,20.6
2016-12-23T04:10:07.356Z,20.6
2016-12-23T04:12:05.088Z,20.6
2016-12-23T04:14:04.803Z,20.6
2016-12-23T04:16:05.928Z,20.6
2016-12-23T04:18:07.392Z,20.6
2016-12-23T04:20:05.286Z,20.6
2016-12-23T04:22:05.503Z,20.6
2016-12-23T04:24:10.505Z,20.6
2016-12-23T04:26:05.200Z,20.6
2016-12-23T04:28:07.863Z,20.6
2016-12-23T04:30:05.617Z,20.6
2016-12-23T04:32:05.649Z,20.6
2016-12-23T04:34:05.568Z,20.6
2016-12-23T04:36:07.899Z,20.7
2016-12-23T04:38:04.627Z,20.6
2016-12-23T04:40:05.536Z,20.7
2016-12-23T04:42:08.067Z,20.6
2016-12-23T04:44:04.919Z,20.6
2016-12-23T04:46:07.605Z,20.7
2016-12-23T04:48:07.908Z,20.7
2016-12-23T04:50:07.728Z,20.7
2016-12-23T04:52:05.712Z,20.7
2016-12-23T04:54:05.586Z,20.7
2016-12-23T04:56:05.216Z,20.7
2016-12-23T04:58:07.783Z,20.7
2016-12-23T05:00:04.776Z,20.7
2016-12-23T05:02:05.572Z,20.7
2016-12-23T05:04:04.833Z,20.7
2016-12-23T05:06:05.565Z,20.7
2016-12-23T05:08:05.325Z,20.7
2016-12-23T05:10:08.240Z,20.7
2016-12-23T05:12:07.872Z,20.7
2016-12-23T05:14:04.704Z,20.7
2016-12-23T05:16:05.977Z,20.7
2016-12-23T05:18:05.340Z,20.7
2016-12-23T05:20:12.680Z,20.7
2016-12-23T05:22:05.394Z,20.7
2016-12-23T05:24:05.200Z,20.7
2016-12-23T05:26:07.307Z,20.8
2016-12-23T05:28:05.495Z,20.7
2016-12-23T05:30:05.343Z,20.8
2016-12-23T05:32:05.301Z,20.8
2016-12-23T05:34:05.582Z,20.8
2016-12-23T05:36:05.445Z,20.8
2016-12-23T05:38:04.601Z,20.8
2016-12-23T05:40:05.870Z,20.8
2016-12-23T05:42:04.738Z,20.8
2016-12-23T05:44:05.154Z,20.8
2016-12-23T05:46:05.260Z,20.8
2016-12-23T05:48:07.283Z,20.8
2016-12-23T05:50:04.995Z,20.8
2016-12-23T05:52:07.471Z,20.8
2016-12-23T05:54:05.232Z,20.8
2016-12-23T05:56:05.062Z,20.8
2016-12-23T05:58:05.268Z,20.8
2016-12-23T06:00:05.418Z,20.8
2016-12-23T06:02:05.297Z,20.8
2016-12-23T06:04:06.031Z,20.8
2016-12-23T06:06:04.981Z,20.8
2016-12-23T06:08:04.989Z,20.9
2016-12-23T06:10:10.012Z,20.8
2016-12-23T06:12:04.763Z,20.8
2016-12-23T06:14:08.138Z,20.9
2016-12-23T06:16:05.214Z,20.8
2016-12-23T06:18:07.177Z,20.9
2016-12-23T06:20:07.490Z,20.8
2016-12-23T06:22:05.292Z,20.9
2016-12-23T06:24:05.145Z,20.8
2016-12-23T06:26:10.169Z,20.9
2016-12-23T06:28:05.258Z,20.8
2016-12-23T06:30:05.165Z,20.9
2016-12-23T06:32:05.062Z,20.9
2016-12-23T06:34:04.801Z,20.9
2016-12-23T06:36:05.483Z,20.9
2016-12-23T06:38:07.287Z,20.9
2016-12-23T06:40:07.914Z,20.9
2016-12-23T06:42:09.789Z,20.9
2016-12-23T06:44:05.661Z,20.9
2016-12-23T06:46:05.635Z,20.9
2016-12-23T06:48:08.323Z,20.9
2016-12-23T06:50:05.028Z,20.9
2016-12-23T06:52:05.272Z,20.9
2016-12-23T06:54:07.689Z,20.9
2016-12-23T06:56:05.387Z,20.9
2016-12-23T06:58:05.217Z,20.9
2016-12-23T07:00:04.904Z,20.9
2016-12-23T07:02:04.688Z,20.9
2016-12-23T07:04:05.989Z,20.9
2016-12-23T07:06:04.694Z,20.9
2016-12-23T07:08:05.395Z,20.9
2016-12-23T07:10:05.508Z,20.9
2016-12-23T07:12:04.752Z,21
2016-12-23T07:14:05.446Z,20.9
2016-12-23T07:16:07.996Z,20.9
2016-12-23T07:18:04.992Z,20.9
2016-12-23T07:20:04.850Z,21
2016-12-23T07:22:07.652Z,20.9
2016-12-23T07:24:05.638Z,20.9
2016-12-23T07:26:05.368Z,20.9
2016-12-23T07:28:05.438Z,20.9
2016-12-23T07:30:05.671Z,20.9
2016-12-23T07:32:05.379Z,21
2016-12-23T07:34:05.604Z,21
2016-12-23T07:36:05.721Z,21
2016-12-23T07:38:05.582Z,20.9
2016-12-23T07:40:05.417Z,21
2016-12-23T07:42:07.765Z,21
2016-12-23T07:44:05.553Z,21
2016-12-23T07:46:05.319Z,21
2016-12-23T07:48:05.036Z,21
2016-12-23T07:50:04.784Z,21
2016-12-23T07:52:05.669Z,21
2016-12-23T07:54:04.863Z,21
2016-12-23T07:56:05.105Z,21
2016-12-23T07:58:04.841Z,21
2016-12-23T08:00:05.545Z,21
2016-12-23T08:02:05.337Z,21
2016-12-23T08:04:05.112Z,21
2016-12-23T08:06:04.902Z,21
2016-12-23T08:08:05.509Z,21
2016-12-23T08:10:07.403Z,21
2016-12-23T08:12:04.637Z,21
2016-12-23T08:14:05.428Z,21
2016-12-23T08:16:05.158Z,21
2016-12-23T08:18:05.132Z,21
2016-12-23T08:20:04.936Z,21
2016-12-23T08:22:04.944Z,21
2016-12-23T08:24:05.006Z,21
2016-12-23T08:26:04.699Z,21
2016-12-23T08:28:05.505Z,21
2016-12-23T08:30:05.233Z,21
2016-12-23T08:32:04.953Z,21
2016-12-23T08:34:04.896Z,21
2016-12-23T08:36:05.597Z,21
2016-12-23T08:38:08.111Z,21
2016-12-23T08:40:04.995Z,21
2016-12-23T08:42:04.729Z,21
2016-12-23T08:44:07.986Z,21
2016-12-23T08:46:04.814Z,21
2016-12-23T08:48:08.004Z,21
2016-12-23T08:50:05.250Z,21
2016-12-23T08:52:05.313Z,21
2016-12-23T08:54:05.067Z,21
2016-12-23T08:56:04.892Z,21
2016-12-23T08:58:05.657Z,21.1
2016-12-23T09:00:05.339Z,21
2016-12-23T09:02:05.100Z,21.1
2016-12-23T09:04:07.751Z,21
2016-12-23T09:06:04.998Z,21
2016-12-23T09:08:05.240Z,21
2016-12-23T09:10:05.286Z,21.1
2016-12-23T09:12:05.352Z,21.1
2016-12-23T09:14:05.073Z,21
2016-12-23T09:16:05.614Z,21
2016-12-23T09:18:05.530Z,21
2016-12-23T09:20:05.260Z,21
2016-12-23T09:22:05.839Z,21
2016-12-23T09:24:08.055Z,21.1
2016-12-23T09:26:04.738Z,21.1
2016-12-23T09:28:05.539Z,21.1
2016-12-23T09:30:07.773Z,21
2016-12-23T09:32:05.432Z,21
2016-12-23T09:34:05.288Z,21
2016-12-23T09:36:04.717Z,21
2016-12-23T09:38:05.436Z,21
2016-12-23T09:40:05.268Z,21
2016-12-23T09:42:04.998Z,21.1
2016-12-23T09:44:05.242Z,21.1
2016-12-23T09:46:05.091Z,21
2016-12-23T09:48:05.333Z,21.1
2016-12-23T09:50:05.051Z,21.1
2016-12-23T09:52:08.239Z,21.1
2016-12-23T09:54:07.478Z,21
2016-12-23T09:56:05.172Z,21
2016-12-23T09:58:04.980Z,21.1
2016-12-23T10:00:04.684Z,21
2016-12-23T10:02:07.983Z,21.1
2016-12-23T10:04:05.094Z,21.1
2016-12-23T10:06:07.323Z,21.1
2016-12-23T10:08:05.101Z,21.1
2016-12-23T10:10:05.146Z,21.1
2016-12-23T10:12:04.945Z,21.1
2016-12-23T10:14:04.680Z,21.1
2016-12-23T10:16:08.256Z,21.1
2016-12-23T10:18:05.157Z,21.1
2016-12-23T10:20:05.409Z,21.1
2016-12-23T10:22:05.456Z,21.1
2016-12-23T10:24:05.285Z,21.1
2016-12-23T10:26:04.996Z,21.1
2016-12-23T10:28:07.282Z,21.1
2016-12-23T10:30:04.985Z,21.1
2016-12-23T10:32:05.395Z,21.1
2016-12-23T10:34:05.148Z,21.2
2016-12-23T10:36:05.368Z,21.2
2016-12-23T10:38:05.170Z,21.2
2016-12-23T10:40:04.852Z,21.2
2016-12-23T10:42:05.586Z,21.2
2016-12-23T10:44:05.275Z,21.2
2016-12-23T10:46:05.663Z,21.2
2016-12-23T10:48:05.091Z,21.2
2016-12-23T10:50:04.828Z,21.2
2016-12-23T10:52:05.454Z,21.2
2016-12-23T10:54:07.262Z,21.3
2016-12-23T10:56:04.927Z,21.3
2016-12-23T10:58:05.441Z,21.3
2016-12-23T11:00:04.652Z,21.3
2016-12-23T11:02:05.366Z,21.3
2016-12-23T11:04:05.440Z,21.3
2016-12-23T11:06:04.761Z,21.3
2016-12-23T11:08:07.586Z,21.2
2016-12-23T11:10:05.604Z,21.3
2016-12-23T11:12:13.016Z,21.3
2016-12-23T11:14:07.272Z,21.3
2016-12-23T11:16:05.743Z,21.2
2016-12-23T11:18:07.719Z,21.3
2016-12-23T11:20:05.396Z,21.2
2016-12-23T11:22:05.798Z,21.2
2016-12-23T11:24:05.529Z,21.2
2016-12-23T11:26:05.295Z,21.2
2016-12-23T11:28:05.107Z,21.3
2016-12-23T11:30:04.822Z,21.2
2016-12-23T11:32:05.572Z,21.2
2016-12-23T11:34:10.469Z,21.2
2016-12-23T11:36:12.323Z,21.2
2016-12-23T11:38:05.122Z,21.2
2016-12-23T11:40:07.738Z,21.2
2016-12-23T11:42:05.425Z,21.2
2016-12-23T11:44:05.143Z,21.2
2016-12-23T11:46:05.313Z,21.2
2016-12-23T11:48:05.063Z,21.2
2016-12-23T11:50:07.276Z,21.2
2016-12-23T11:52:05.784Z,21.1
2016-12-23T11:54:11.513Z,21.1
2016-12-23T11:56:05.178Z,21.1
2016-12-23T11:58:06.060Z,21.1
2016-12-23T12:00:04.993Z,21.1
2016-12-23T12:02:04.982Z,21.1
2016-12-23T12:04:04.956Z,21.1
2016-12-23T12:06:04.651Z,21.1
2016-12-23T12:08:12.978Z,21.1
2016-12-23T12:10:04.839Z,21.1
2016-12-23T12:12:05.522Z,21.1
2016-12-23T12:14:10.364Z,21.1
2016-12-23T12:16:05.079Z,21.1
2016-12-23T12:18:04.960Z,21.1
2016-12-23T12:20:04.683Z,21.1
2016-12-23T12:22:05.038Z,21.1
2016-12-23T12:24:04.732Z,21.1
2016-12-23T12:26:04.972Z,21
2016-12-23T12:28:04.734Z,21
2016-12-23T12:30:05.462Z,21
2016-12-23T12:32:07.205Z,21
2016-12-23T12:34:07.773Z,21
2016-12-23T12:36:05.576Z,21
2016-12-23T12:38:05.289Z,21.1
2016-12-23T12:40:05.391Z,21
2016-12-23T12:42:05.100Z,21
2016-12-23T12:44:07.341Z,21
2016-12-23T12:46:05.259Z,21
2016-12-23T12:48:04.990Z,21
2016-12-23T12:50:05.232Z,21
2016-12-23T12:52:05.101Z,21
2016-12-23T12:54:09.870Z,21
2016-12-23T12:56:04.801Z,20.9
2016-12-23T12:58:04.908Z,20.9
2016-12-23T13:00:04.676Z,21
2016-12-23T13:02:05.310Z,21
2016-12-23T13:04:07.546Z,20.9
2016-12-23T13:06:07.780Z,20.9
2016-12-23T13:08:05.537Z,20.9
2016-12-23T13:10:05.440Z,21
2016-12-23T13:12:04.647Z,21
2016-12-23T13:14:07.881Z,21
2016-12-23T13:16:05.568Z,21
2016-12-23T13:18:10.610Z,20.9
2016-12-23T13:20:13.090Z,21
2016-12-23T13:22:05.197Z,21
2016-12-23T13:24:04.896Z,21
2016-12-23T13:26:05.649Z,21
2016-12-23T13:28:05.667Z,21
2016-12-23T13:30:05.356Z,21
2016-12-23T13:32:07.602Z,21
2016-12-23T13:34:05.006Z,21
2016-12-23T13:36:04.822Z,21
2016-12-23T13:38:05.586Z,21.1
2016-12-23T13:40:05.395Z,21.1
2016-12-23T13:42:05.087Z,21.2
2016-12-23T13:44:04.806Z,21.2
2016-12-23T13:46:04.956Z,21.2
2016-12-23T13:48:10.279Z,21.2
2016-12-23T13:50:07.573Z,21.2
2016-12-23T13:52:05.485Z,21.2
2016-12-23T13:54:04.719Z,21.2
2016-12-23T13:56:05.055Z,21.2
2016-12-23T13:58:04.995Z,21.2
2016-12-23T14:00:04.843Z,21.2
2016-12-23T14:02:05.048Z,21.2
2016-12-23T14:04:05.127Z,21.1
2016-12-23T14:06:04.824Z,21.1
2016-12-23T14:08:05.551Z,21.1
2016-12-23T14:10:07.914Z,21.1
2016-12-23T14:12:05.196Z,21.1
2016-12-23T14:14:07.505Z,21.1
2016-12-23T14:16:05.554Z,21.1
2016-12-23T14:18:05.418Z,21.1
2016-12-23T14:20:05.162Z,21.1
2016-12-23T14:22:07.641Z,21.1
2016-12-23T14:24:09.105Z,21.1
2016-12-23T14:26:05.017Z,21.1
2016-12-23T14:28:04.812Z,21.1
2016-12-23T14:30:05.713Z,21.1
2016-12-23T14:32:04.978Z,21
2016-12-23T14:34:05.064Z,21
2016-12-23T14:36:04.785Z,21.1
2016-12-23T14:38:05.606Z,21
2016-12-23T14:40:05.438Z,21
2016-12-23T14:42:05.157Z,21
2016-12-23T14:44:04.888Z,21
2016-12-23T14:46:06.012Z,21
2016-12-23T14:48:04.884Z,21
2016-12-23T14:50:10.665Z,21
2016-12-23T14:52:05.537Z,21
2016-12-23T14:54:05.231Z,21
2016-12-23T14:56:04.940Z,21
2016-12-23T14:58:05.032Z,20.9
2016-12-23T15:00:07.270Z,21
2016-12-23T15:02:04.951Z,21
2016-12-23T15:04:05.535Z,21
2016-12-23T15:06:04.731Z,20.9
2016-12-23T15:08:05.401Z,20.9
2016-12-23T15:10:05.427Z,20.9
2016-12-23T15:12:12.231Z,20.9
2016-12-23T15:14:07.430Z,20.8
2016-12-23T15:16:05.308Z,20.8
2016-12-23T15:18:05.020Z,20.8
2016-12-23T15:20:04.874Z,20.9
2016-12-23T15:22:05.937Z,20.9
2016-12-23T15:24:08.118Z,20.8
2016-12-23T15:26:04.877Z,20.8
2016-12-23T15:28:08.294Z,20.8
2016-12-23T15:30:05.284Z,20.8
2016-12-23T15:32:13.185Z,20.8
2016-12-23T15:34:05.776Z,20.8
2016-12-23T15:36:05.877Z,20.8
2016-12-23T15:38:05.608Z,20.8
2016-12-23T15:40:05.458Z,20.8
2016-12-23T15:42:05.162Z,20.8
2016-12-23T15:44:04.882Z,20.8
2016-12-23T15:46:07.902Z,20.8
2016-12-23T15:48:04.609Z,20.8
2016-12-23T15:50:04.944Z,20.8
2016-12-23T15:52:05.127Z,20.8
2016-12-23T15:54:05.414Z,20.8
2016-12-23T15:56:05.120Z,20.8
2016-12-23T15:58:06.692Z,20.8
2016-12-23T16:00:05.497Z,20.8
2016-12-23T16:02:05.264Z,20.8
2016-12-23T16:04:05.199Z,20.7
2016-12-23T16:06:05.083Z,20.8
2016-12-23T16:08:04.890Z,20.7
2016-12-23T16:10:05.967Z,20.7
2016-12-23T16:12:07.208Z,20.7
2016-12-23T16:14:04.903Z,20.7
2016-12-23T16:16:04.679Z,20.7
2016-12-23T16:18:04.612Z,20.7
2016-12-23T16:20:05.462Z,20.7
2016-12-23T16:22:05.486Z,20.7
2016-12-23T16:24:05.409Z,20.7
2016-12-23T16:26:05.133Z,20.7
2016-12-23T16:28:05.115Z,20.7
2016-12-23T16:30:04.809Z,20.7
2016-12-23T16:32:11.339Z,20.7
2016-12-23T16:34:08.168Z,20.7
2016-12-23T16:36:04.932Z,20.7
2016-12-23T16:38:04.618Z,20.7
2016-12-23T16:40:05.808Z,20.7
2016-12-23T16:42:07.584Z,20.7
2016-12-23T16:44:05.324Z,20.7
2016-12-23T16:46:05.650Z,20.7
2016-12-23T16:48:05.457Z,20.7
2016-12-23T16:50:05.214Z,20.7
2016-12-23T16:52:10.348Z,20.7
2016-12-23T16:54:05.077Z,20.7
2016-12-23T16:56:05.110Z,20.7
2016-12-23T16:58:07.442Z,20.8
2016-12-23T17:00:05.159Z,20.8
2016-12-23T17:02:04.881Z,20.8
2016-12-23T17:04:08.163Z,20.7
2016-12-23T17:06:07.417Z,20.7
2016-12-23T17:08:04.723Z,20.7
2016-12-23T17:10:07.593Z,20.8
2016-12-23T17:12:07.817Z,20.8
2016-12-23T17:14:05.265Z,20.8
2016-12-23T17:16:05.533Z,20.8
2016-12-23T17:18:07.997Z,21.2
2016-12-23T17:20:04.715Z,21.2
2016-12-23T17:22:05.367Z,21.4
2016-12-23T17:24:05.041Z,21.3
2016-12-23T17:26:04.761Z,21.1
2016-12-23T17:28:06.221Z,21
2016-12-23T17:30:05.516Z,21.2
2016-12-23T17:32:05.721Z,21.3
2016-12-23T17:34:07.984Z,21.3
2016-12-23T17:36:05.164Z,21.3
2016-12-23T17:38:04.808Z,21.3
2016-12-23T17:40:07.989Z,21.1
2016-12-23T17:42:04.668Z,21.1
2016-12-23T17:44:05.623Z,21.2
2016-12-23T17:46:05.234Z,21.4
2016-12-23T17:48:12.506Z,21.7
2016-12-23T17:50:05.292Z,21.7
2016-12-23T17:52:05.180Z,21.8
2016-12-23T17:54:04.973Z,21.9
2016-12-23T17:56:06.189Z,21.7
2016-12-23T17:58:05.028Z,21.6
2016-12-23T18:00:05.061Z,21.5
2016-12-23T18:02:09.901Z,21.4
2016-12-23T18:04:05.914Z,21.3
2016-12-23T18:06:05.100Z,21.5
2016-12-23T18:08:04.855Z,21.7
2016-12-23T18:10:07.595Z,22
2016-12-23T18:12:05.310Z,22
2016-12-23T18:14:07.558Z,21.7
2016-12-23T18:16:04.963Z,21.7
2016-12-23T18:18:05.423Z,21.5
2016-12-23T18:20:05.250Z,21.5
2016-12-23T18:22:04.956Z,21.7
2016-12-23T18:24:04.711Z,21.6
2016-12-23T18:26:04.978Z,21.9
2016-12-23T18:28:05.241Z,22
2016-12-23T18:30:04.934Z,22.1
2016-12-23T18:32:04.748Z,22.1
2016-12-23T18:34:05.691Z,21.9
2016-12-23T18:36:04.997Z,21.7
2016-12-23T18:38:05.827Z,21.6
2016-12-23T18:40:05.744Z,21.6
2016-12-23T18:42:04.865Z,21.8
2016-12-23T18:44:05.557Z,21.9
2016-12-23T18:46:05.281Z,22
2016-12-23T18:48:05.154Z,22.1
2016-12-23T18:50:04.892Z,22
2016-12-23T18:52:05.680Z,21.8
2016-12-23T18:54:05.596Z,21.7
2016-12-23T18:56:05.259Z,21.7
2016-12-23T18:58:05.077Z,21.7
2016-12-23T19:00:04.803Z,21.9
2016-12-23T19:02:05.550Z,22.1
2016-12-23T19:04:05.632Z,22.2
2016-12-23T19:06:08.103Z,22.3
2016-12-23T19:08:05.006Z,22.3
2016-12-23T19:10:04.900Z,22.1
2016-12-23T19:12:13.336Z,21.8
2016-12-23T19:14:10.480Z,21.7
2016-12-23T19:16:10.242Z,21.7
2016-12-23T19:18:05.145Z,21.8
2016-12-23T19:20:08.020Z,22.1
2016-12-23T19:22:04.692Z,22.1
2016-12-23T19:24:05.392Z,22.2
2016-12-23T19:26:12.690Z,22.4
2016-12-23T19:28:08.277Z,22.2
2016-12-23T19:30:05.061Z,22.2
2016-12-23T19:32:04.787Z,22
2016-12-23T19:34:05.675Z,21.9
2016-12-23T19:36:05.547Z,21.8
2016-12-23T19:38:05.569Z,21.8
2016-12-23T19:40:07.846Z,22.1
2016-12-23T19:42:05.599Z,22
2016-12-23T19:44:07.904Z,22.2
2016-12-23T19:46:04.950Z,22.2
2016-12-23T19:48:07.224Z,22.3
2016-12-23T19:50:04.949Z,22.3
2016-12-23T19:52:04.800Z,22
2016-12-23T19:54:05.513Z,21.9
2016-12-23T19:56:07.768Z,21.8
2016-12-23T19:58:05.447Z,21.8
2016-12-23T20:00:10.742Z,22.1
2016-12-23T20:02:05.460Z,22.1
2016-12-23T20:04:05.565Z,22.2
2016-12-23T20:06:05.266Z,22.3
2016-12-23T20:08:05.319Z,22.3
2016-12-23T20:10:05.103Z,22.4
2016-12-23T20:12:05.314Z,22.4
2016-12-23T20:14:04.988Z,22.2
2016-12-23T20:16:09.850Z,21.9
2016-12-23T20:18:04.712Z,21.8
2016-12-23T20:20:05.429Z,21.9
2016-12-23T20:22:05.409Z,22
2016-12-23T20:24:05.297Z,22.2
2016-12-23T20:26:07.557Z,22.4
2016-12-23T20:28:05.803Z,22.4
2016-12-23T20:30:08.037Z,22.2
2016-12-23T20:32:07.217Z,21.9
2016-12-23T20:34:05.838Z,21.9
2016-12-23T20:36:05.571Z,21.8
2016-12-23T20:38:04.810Z,21.7
2016-12-23T20:40:05.655Z,21.9
2016-12-23T20:42:05.357Z,22.1
2016-12-23T20:44:08.225Z,22.4
2016-12-23T20:46:07.731Z,22.5
2016-12-23T20:48:05.411Z,22.5
2016-12-23T20:50:05.157Z,22.6
2016-12-23T20:52:05.030Z,22.5
2016-12-23T20:54:04.720Z,22.3
2016-12-23T20:56:05.430Z,22.2
2016-12-23T20:58:05.560Z,22.1
2016-12-23T21:00:06.299Z,22.1
2016-12-23T21:02:05.215Z,22.3
2016-12-23T21:04:11.519Z,22.4
2016-12-23T21:06:05.228Z,22.6
2016-12-23T21:08:04.961Z,22.7
2016-12-23T21:10:04.782Z,22.7
2016-12-23T21:12:08.377Z,22.3
2016-12-23T21:14:05.215Z,22.3
2016-12-23T21:16:05.117Z,22.2
2016-12-23T21:18:04.996Z,22.1
2016-12-23T21:20:07.209Z,22.3
2016-12-23T21:22:07.561Z,22.5
2016-12-23T21:24:05.343Z,22.5
2016-12-23T21:26:07.603Z,22.6
2016-12-23T21:28:05.651Z,22.6
2016-12-23T21:30:05.638Z,22.7
2016-12-23T21:32:04.867Z,22.6
2016-12-23T21:34:05.970Z,22.4
2016-12-23T21:36:04.680Z,22.3
2016-12-23T21:38:05.369Z,22.3
2016-12-23T21:40:07.698Z,22.4
2016-12-23T21:42:05.440Z,22.4
2016-12-23T21:44:05.536Z,22.6
2016-12-23T21:46:05.480Z,22.7
2016-12-23T21:48:05.172Z,22.7
2016-12-23T21:50:04.900Z,22.8
2016-12-23T21:52:05.628Z,22.9
2016-12-23T21:54:05.315Z,22.9
2016-12-23T21:56:04.997Z,22.8
2016-12-23T21:58:04.914Z,22.7
2016-12-23T22:00:05.948Z,22.5
2016-12-23T22:02:07.637Z,22.5
2016-12-23T22:04:05.536Z,22.5
2016-12-23T22:06:05.265Z,22.7
2016-12-23T22:08:05.464Z,22.8
2016-12-23T22:10:05.327Z,22.9
2016-12-23T22:12:05.139Z,22.9
2016-12-23T22:14:04.879Z,22.9
2016-12-23T22:16:05.428Z,22.9
2016-12-23T22:18:07.993Z,22.6
2016-12-23T22:20:06.316Z,22.6
2016-12-23T22:22:10.919Z,22.4
2016-12-23T22:24:09.734Z,22.4
2016-12-23T22:26:04.650Z,22.4
2016-12-23T22:28:05.515Z,22.3
2016-12-23T22:30:04.751Z,22.3
2016-12-23T22:32:08.372Z,22.2
2016-12-23T22:34:05.141Z,22.2
2016-12-23T22:36:05.079Z,22.2
2016-12-23T22:38:10.820Z,22.1
2016-12-23T22:40:12.597Z,22.1
2016-12-23T22:42:04.883Z,22.1
2016-12-23T22:44:05.566Z,22
2016-12-23T22:46:05.471Z,22
2016-12-23T22:48:05.815Z,22
2016-12-23T22:50:04.712Z,22
2016-12-23T22:52:07.746Z,22
2016-12-23T22:54:04.966Z,21.9
2016-12-23T22:56:05.213Z,21.9
2016-12-23T22:58:07.749Z,21.9
2016-12-23T23:00:05.429Z,21.9
2016-12-23T23:02:07.221Z,21.8
2016-12-23T23:04:05.242Z,21.9
2016-12-23T23:06:07.497Z,21.8
2016-12-23T23:08:05.340Z,21.8
2016-12-23T23:10:05.322Z,21.8
2016-12-23T23:12:07.603Z,21.8
2016-12-23T23:14:05.499Z,21.8
2016-12-23T23:16:08.097Z,21.8
2016-12-23T23:18:07.538Z,21.8
2016-12-23T23:20:05.282Z,21.8
2016-12-23T23:22:10.384Z,21.7
2016-12-23T23:24:05.083Z,21.7
2016-12-23T23:26:04.914Z,21.7
2016-12-23T23:28:05.244Z,21.7
2016-12-23T23:30:04.974Z,21.7
2016-12-23T23:32:04.659Z,21.7
2016-12-23T23:34:05.110Z,21.7
2016-12-23T23:36:04.874Z,21.7
2016-12-23T23:38:08.133Z,21.7
2016-12-23T23:40:04.957Z,21.6
2016-12-23T23:42:04.724Z,21.6
2016-12-23T23:44:05.394Z,21.6
2016-12-23T23:46:05.979Z,21.7
2016-12-23T23:48:05.229Z,21.7
2016-12-23T23:50:04.968Z,21.6
2016-12-23T23:52:04.971Z,21.6
2016-12-23T23:54:04.669Z,21.6
2016-12-23T23:56:05.347Z,21.6
2016-12-23T23:58:04.974Z,21.6
